sensor_id;sensor_type;location;lat;lon;timestamp;P1;P2;P0
24012;PMS7003;12220;50.194;18.948;2022-11-28T00:01:29;43;34;22
24012;PMS7003;12220;50.194;18.948;2022-11-28T00:03:35;43;37;23
24012;PMS7003;12220;50.194;18.948;2022-11-28T00:05:40;57;46;27
24012;PMS7003;12220;50.194;18.948;2022-11-28T00:07:41;60;43;23
24012;PMS7003;12220;50.194;18.948;2022-11-28T00:09:42;57;43;25
24012;PMS7003;12220;50.194;18.948;2022-11-28T00:11:44;62;46;27
24012;PMS7003;12220;50.194;18.948;2022-11-28T00:13:55;64;48;28
24012;PMS7003;12220;50.194;18.948;2022-11-28T00:16:00;66;50;30
24012;PMS7003;12220;50.194;18.948;2022-11-28T00:18:02;58;44;26
24012;PMS7003;12220;50.194;18.948;2022-11-28T00:20:04;59;47;26
24012;PMS7003;12220;50.194;18.948;2022-11-28T00:22:10;63;47;27
24012;PMS7003;12220;50.194;18.948;2022-11-28T00:24:12;64;49;31
24012;PMS7003;12220;50.194;18.948;2022-11-28T00:26:14;72;56;32
24012;PMS7003;12220;50.194;18.948;2022-11-28T00:28:19;70;51;31
24012;PMS7003;12220;50.194;18.948;2022-11-28T00:30:25;69;52;30
24012;PMS7003;12220;50.194;18.948;2022-11-28T00:32:26;72;54;32
24012;PMS7003;12220;50.194;18.948;2022-11-28T00:34:28;66;52;30
24012;PMS7003;12220;50.194;18.948;2022-11-28T00:36:32;71;55;31
24012;PMS7003;12220;50.194;18.948;2022-11-28T00:38:41;74;54;31
24012;PMS7003;12220;50.194;18.948;2022-11-28T00:40:42;63;47;29
24012;PMS7003;12220;50.194;18.948;2022-11-28T00:42:43;55;42;21
24012;PMS7003;12220;50.194;18.948;2022-11-28T00:44:44;66;48;29
24012;PMS7003;12220;50.194;18.948;2022-11-28T00:46:56;61;47;29
24012;PMS7003;12220;50.194;18.948;2022-11-28T00:48:57;55;45;29
24012;PMS7003;12220;50.194;18.948;2022-11-28T00:51:08;48;40;27
24012;PMS7003;12220;50.194;18.948;2022-11-28T00:53:14;47;37;23
24012;PMS7003;12220;50.194;18.948;2022-11-28T00:55:40;57;42;26
24012;PMS7003;12220;50.194;18.948;2022-11-28T00:57:41;53;38;23
24012;PMS7003;12220;50.194;18.948;2022-11-28T00:59:42;58;41;26
24012;PMS7003;12220;50.194;18.948;2022-11-28T01:01:43;51;41;25
24012;PMS7003;12220;50.194;18.948;2022-11-28T01:03:45;49;36;22
24012;PMS7003;12220;50.194;18.948;2022-11-28T01:05:47;51;37;24
24012;PMS7003;12220;50.194;18.948;2022-11-28T01:07:50;44;35;23
24012;PMS7003;12220;50.194;18.948;2022-11-28T01:09:51;46;38;21
24012;PMS7003;12220;50.194;18.948;2022-11-28T01:11:52;49;42;25
24012;PMS7003;12220;50.194;18.948;2022-11-28T01:13:55;53;41;22
24012;PMS7003;12220;50.194;18.948;2022-11-28T01:16:06;48;37;26
24012;PMS7003;12220;50.194;18.948;2022-11-28T01:18:08;59;43;25
24012;PMS7003;12220;50.194;18.948;2022-11-28T01:20:10;51;42;26
24012;PMS7003;12220;50.194;18.948;2022-11-28T01:22:11;52;42;26
24012;PMS7003;12220;50.194;18.948;2022-11-28T01:24:20;54;43;25
24012;PMS7003;12220;50.194;18.948;2022-11-28T01:26:22;48;39;26
24012;PMS7003;12220;50.194;18.948;2022-11-28T01:28:26;43;33;23
24012;PMS7003;12220;50.194;18.948;2022-11-28T01:30:27;53;42;25
24012;PMS7003;12220;50.194;18.948;2022-11-28T01:32:35;52;42;24
24012;PMS7003;12220;50.194;18.948;2022-11-28T01:34:36;42;33;22
24012;PMS7003;12220;50.194;18.948;2022-11-28T01:36:38;30;25;20
24012;PMS7003;12220;50.194;18.948;2022-11-28T01:38:39;46;38;21
24012;PMS7003;12220;50.194;18.948;2022-11-28T01:40:51;45;36;24
24012;PMS7003;12220;50.194;18.948;2022-11-28T01:42:53;57;44;27
24012;PMS7003;12220;50.194;18.948;2022-11-28T01:47:04;47;37;26
24012;PMS7003;12220;50.194;18.948;2022-11-28T01:49:15;41;35;22
24012;PMS7003;12220;50.194;18.948;2022-11-28T01:51:15;42;29;21
24012;PMS7003;12220;50.194;18.948;2022-11-28T01:53:16;41;32;24
24012;PMS7003;12220;50.194;18.948;2022-11-28T01:55:19;39;35;22
24012;PMS7003;12220;50.194;18.948;2022-11-28T01:57:24;42;34;22
24012;PMS7003;12220;50.194;18.948;2022-11-28T01:59:27;47;36;22
24012;PMS7003;12220;50.194;18.948;2022-11-28T02:01:33;40;30;22
24012;PMS7003;12220;50.194;18.948;2022-11-28T02:03:45;37;32;19
24012;PMS7003;12220;50.194;18.948;2022-11-28T02:05:47;46;36;23
24012;PMS7003;12220;50.194;18.948;2022-11-28T02:08:00;43;33;20
24012;PMS7003;12220;50.194;18.948;2022-11-28T02:10:02;42;33;20
24012;PMS7003;12220;50.194;18.948;2022-11-28T02:16:40;45;36;22
24012;PMS7003;12220;50.194;18.948;2022-11-28T02:42:16;59;47;28
24012;PMS7003;12220;50.194;18.948;2022-11-28T02:46:58;58;46;28
24012;PMS7003;12220;50.194;18.948;2022-11-28T02:49:18;54;41;27
24012;PMS7003;12220;50.194;18.948;2022-11-28T02:51:42;48;40;24
24012;PMS7003;12220;50.194;18.948;2022-11-28T02:53:38;52;42;26
24012;PMS7003;12220;50.194;18.948;2022-11-28T02:55:43;53;42;26
24012;PMS7003;12220;50.194;18.948;2022-11-28T02:57:46;58;45;29
24012;PMS7003;12220;50.194;18.948;2022-11-28T02:59:51;49;38;23
24012;PMS7003;12220;50.194;18.948;2022-11-28T03:01:55;51;39;24
24012;PMS7003;12220;50.194;18.948;2022-11-28T03:17:51;47;38;23
24012;PMS7003;12220;50.194;18.948;2022-11-28T03:20:14;48;38;23
24012;PMS7003;12220;50.194;18.948;2022-11-28T03:24:53;50;41;25
24012;PMS7003;12220;50.194;18.948;2022-11-28T03:27:22;49;38;24
24012;PMS7003;12220;50.194;18.948;2022-11-28T03:31:57;43;36;23
24012;PMS7003;12220;50.194;18.948;2022-11-28T03:34:03;47;34;23
24012;PMS7003;12220;50.194;18.948;2022-11-28T03:36:15;50;37;23
24012;PMS7003;12220;50.194;18.948;2022-11-28T03:38:23;49;40;27
24012;PMS7003;12220;50.194;18.948;2022-11-28T03:40:35;49;36;23
24012;PMS7003;12220;50.194;18.948;2022-11-28T03:42:43;47;36;23
24012;PMS7003;12220;50.194;18.948;2022-11-28T03:45:02;44;35;23
24012;PMS7003;12220;50.194;18.948;2022-11-28T03:47:18;44;38;24
24012;PMS7003;12220;50.194;18.948;2022-11-28T03:49:26;44;34;23
24012;PMS7003;12220;50.194;18.948;2022-11-28T03:51:35;46;36;22
24012;PMS7003;12220;50.194;18.948;2022-11-28T03:55:55;40;34;22
24012;PMS7003;12220;50.194;18.948;2022-11-28T03:58:10;32;29;19
24012;PMS7003;12220;50.194;18.948;2022-11-28T04:00:20;40;34;22
24012;PMS7003;12220;50.194;18.948;2022-11-28T04:09:02;36;33;21
24012;PMS7003;12220;50.194;18.948;2022-11-28T04:13:21;41;35;22
24012;PMS7003;12220;50.194;18.948;2022-11-28T04:15:31;36;32;21
24012;PMS7003;12220;50.194;18.948;2022-11-28T04:17:59;38;32;18
24012;PMS7003;12220;50.194;18.948;2022-11-28T04:20:00;31;24;14
24012;PMS7003;12220;50.194;18.948;2022-11-28T04:24:20;38;33;20
24012;PMS7003;12220;50.194;18.948;2022-11-28T04:26:32;35;28;19
24012;PMS7003;12220;50.194;18.948;2022-11-28T04:28:34;29;26;18
24012;PMS7003;12220;50.194;18.948;2022-11-28T04:30:38;34;29;18
24012;PMS7003;12220;50.194;18.948;2022-11-28T04:32:48;31;27;16
24012;PMS7003;12220;50.194;18.948;2022-11-28T04:35:00;37;30;17
24012;PMS7003;12220;50.194;18.948;2022-11-28T04:37:08;36;30;19
24012;PMS7003;12220;50.194;18.948;2022-11-28T04:39:16;28;26;19
24012;PMS7003;12220;50.194;18.948;2022-11-28T04:41:20;30;27;18
24012;PMS7003;12220;50.194;18.948;2022-11-28T04:43:28;34;31;20
24012;PMS7003;12220;50.194;18.948;2022-11-28T04:45:34;25;25;18
24012;PMS7003;12220;50.194;18.948;2022-11-28T04:47:46;36;30;18
24012;PMS7003;12220;50.194;18.948;2022-11-28T04:49:47;37;31;20
24012;PMS7003;12220;50.194;18.948;2022-11-28T04:51:51;34;28;20
24012;PMS7003;12220;50.194;18.948;2022-11-28T04:56:16;40;31;20
24012;PMS7003;12220;50.194;18.948;2022-11-28T04:58:25;35;27;20
24012;PMS7003;12220;50.194;18.948;2022-11-28T05:00:44;30;29;21
24012;PMS7003;12220;50.194;18.948;2022-11-28T05:02:49;36;29;20
24012;PMS7003;12220;50.194;18.948;2022-11-28T05:04:53;46;35;19
24012;PMS7003;12220;50.194;18.948;2022-11-28T05:09:06;39;36;22
24012;PMS7003;12220;50.194;18.948;2022-11-28T05:11:20;43;38;24
24012;PMS7003;12220;50.194;18.948;2022-11-28T05:13:24;50;38;24
24012;PMS7003;12220;50.194;18.948;2022-11-28T05:15:25;48;35;23
24012;PMS7003;12220;50.194;18.948;2022-11-28T05:17:26;45;36;24
24012;PMS7003;12220;50.194;18.948;2022-11-28T05:19:35;50;40;25
24012;PMS7003;12220;50.194;18.948;2022-11-28T05:21:36;46;39;24
24012;PMS7003;12220;50.194;18.948;2022-11-28T05:23:38;43;35;25
24012;PMS7003;12220;50.194;18.948;2022-11-28T05:25:42;44;36;21
24012;PMS7003;12220;50.194;18.948;2022-11-28T05:27:51;39;33;22
24012;PMS7003;12220;50.194;18.948;2022-11-28T05:29:52;47;37;24
24012;PMS7003;12220;50.194;18.948;2022-11-28T05:31:54;43;34;24
24012;PMS7003;12220;50.194;18.948;2022-11-28T05:33:55;48;38;23
24012;PMS7003;12220;50.194;18.948;2022-11-28T05:36:07;48;39;26
24012;PMS7003;12220;50.194;18.948;2022-11-28T05:38:10;51;40;25
24012;PMS7003;12220;50.194;18.948;2022-11-28T05:40:11;50;40;25
24012;PMS7003;12220;50.194;18.948;2022-11-28T05:42:12;46;32;20
24012;PMS7003;12220;50.194;18.948;2022-11-28T05:44:21;41;31;20
24012;PMS7003;12220;50.194;18.948;2022-11-28T05:46:22;46;37;22
24012;PMS7003;12220;50.194;18.948;2022-11-28T05:48:24;39;32;21
24012;PMS7003;12220;50.194;18.948;2022-11-28T05:50:26;40;34;23
24012;PMS7003;12220;50.194;18.948;2022-11-28T05:52:36;40;32;22
24012;PMS7003;12220;50.194;18.948;2022-11-28T05:54:40;44;36;22
24012;PMS7003;12220;50.194;18.948;2022-11-28T05:56:41;46;34;22
24012;PMS7003;12220;50.194;18.948;2022-11-28T05:58:43;47;36;23
24012;PMS7003;12220;50.194;18.948;2022-11-28T06:00:51;55;41;25
24012;PMS7003;12220;50.194;18.948;2022-11-28T06:02:52;49;38;24
24012;PMS7003;12220;50.194;18.948;2022-11-28T06:04:54;43;34;21
24012;PMS7003;12220;50.194;18.948;2022-11-28T06:06:55;43;35;21
24012;PMS7003;12220;50.194;18.948;2022-11-28T06:09:06;46;33;23
24012;PMS7003;12220;50.194;18.948;2022-11-28T06:11:08;46;36;21
24012;PMS7003;12220;50.194;18.948;2022-11-28T06:13:10;36;32;22
24012;PMS7003;12220;50.194;18.948;2022-11-28T06:15:11;47;39;24
24012;PMS7003;12220;50.194;18.948;2022-11-28T06:17:21;46;36;22
24012;PMS7003;12220;50.194;18.948;2022-11-28T06:19:23;49;38;23
24012;PMS7003;12220;50.194;18.948;2022-11-28T06:21:24;48;37;23
24012;PMS7003;12220;50.194;18.948;2022-11-28T06:23:26;44;37;24
24012;PMS7003;12220;50.194;18.948;2022-11-28T06:25:37;46;39;23
24012;PMS7003;12220;50.194;18.948;2022-11-28T06:27:38;53;42;28
24012;PMS7003;12220;50.194;18.948;2022-11-28T06:29:40;49;39;25
24012;PMS7003;12220;50.194;18.948;2022-11-28T06:31:41;58;43;27
24012;PMS7003;12220;50.194;18.948;2022-11-28T06:33:52;56;44;28
24012;PMS7003;12220;50.194;18.948;2022-11-28T06:36:03;55;44;28
24012;PMS7003;12220;50.194;18.948;2022-11-28T06:38:01;44;38;23
24012;PMS7003;12220;50.194;18.948;2022-11-28T06:40:03;50;40;25
24012;PMS7003;12220;50.194;18.948;2022-11-28T06:42:07;46;39;24
24012;PMS7003;12220;50.194;18.948;2022-11-28T06:44:11;54;42;24
24012;PMS7003;12220;50.194;18.948;2022-11-28T06:46:15;47;38;23
24012;PMS7003;12220;50.194;18.948;2022-11-28T06:48:18;44;37;23
24012;PMS7003;12220;50.194;18.948;2022-11-28T06:50:22;47;40;22
24012;PMS7003;12220;50.194;18.948;2022-11-28T06:52:26;46;39;26
24012;PMS7003;12220;50.194;18.948;2022-11-28T06:54:30;50;41;27
24012;PMS7003;12220;50.194;18.948;2022-11-28T06:56:34;49;38;25
24012;PMS7003;12220;50.194;18.948;2022-11-28T06:58:37;49;40;26
24012;PMS7003;12220;50.194;18.948;2022-11-28T07:00:38;52;42;27
24012;PMS7003;12220;50.194;18.948;2022-11-28T07:02:39;54;40;25
24012;PMS7003;12220;50.194;18.948;2022-11-28T07:04:44;61;46;28
24012;PMS7003;12220;50.194;18.948;2022-11-28T07:06:52;57;44;29
24012;PMS7003;12220;50.194;18.948;2022-11-28T07:08:54;59;46;30
24012;PMS7003;12220;50.194;18.948;2022-11-28T07:11:06;57;44;28
24012;PMS7003;12220;50.194;18.948;2022-11-28T07:13:12;53;42;27
24012;PMS7003;12220;50.194;18.948;2022-11-28T07:15:14;57;44;29
24012;PMS7003;12220;50.194;18.948;2022-11-28T07:17:15;60;46;28
24012;PMS7003;12220;50.194;18.948;2022-11-28T07:19:16;57;44;29
24012;PMS7003;12220;50.194;18.948;2022-11-28T07:21:22;56;42;25
24012;PMS7003;12220;50.194;18.948;2022-11-28T07:23:25;56;45;28
24012;PMS7003;12220;50.194;18.948;2022-11-28T07:25:26;52;43;26
24012;PMS7003;12220;50.194;18.948;2022-11-28T07:27:28;53;44;29
24012;PMS7003;12220;50.194;18.948;2022-11-28T07:29:32;50;41;26
24012;PMS7003;12220;50.194;18.948;2022-11-28T07:31:44;59;46;29
24012;PMS7003;12220;50.194;18.948;2022-11-28T07:33:47;63;51;33
24012;PMS7003;12220;50.194;18.948;2022-11-28T07:35:49;66;47;28
24012;PMS7003;12220;50.194;18.948;2022-11-28T07:37:53;58;46;30
24012;PMS7003;12220;50.194;18.948;2022-11-28T07:39:56;56;42;26
24012;PMS7003;12220;50.194;18.948;2022-11-28T07:41:57;59;46;28
24012;PMS7003;12220;50.194;18.948;2022-11-28T07:43:59;62;48;28
24012;PMS7003;12220;50.194;18.948;2022-11-28T07:46:03;62;47;28
24012;PMS7003;12220;50.194;18.948;2022-11-28T07:48:11;62;49;29
24012;PMS7003;12220;50.194;18.948;2022-11-28T07:50:12;60;46;28
24012;PMS7003;12220;50.194;18.948;2022-11-28T07:52:14;58;43;26
24012;PMS7003;12220;50.194;18.948;2022-11-28T07:54:15;54;42;29
24012;PMS7003;12220;50.194;18.948;2022-11-28T07:56:27;60;46;30
24012;PMS7003;12220;50.194;18.948;2022-11-28T07:58:30;60;47;30
24012;PMS7003;12220;50.194;18.948;2022-11-28T08:00:32;57;43;27
24012;PMS7003;12220;50.194;18.948;2022-11-28T08:02:33;58;46;28
24012;PMS7003;12220;50.194;18.948;2022-11-28T08:04:41;54;43;27
24012;PMS7003;12220;50.194;18.948;2022-11-28T08:06:42;48;40;25
24012;PMS7003;12220;50.194;18.948;2022-11-28T08:08:44;54;45;29
24012;PMS7003;12220;50.194;18.948;2022-11-28T08:10:47;62;45;29
24012;PMS7003;12220;50.194;18.948;2022-11-28T08:12:56;57;46;30
24012;PMS7003;12220;50.194;18.948;2022-11-28T08:14:58;70;52;30
24012;PMS7003;12220;50.194;18.948;2022-11-28T08:16:59;67;50;33
24012;PMS7003;12220;50.194;18.948;2022-11-28T08:19:00;64;51;30
24012;PMS7003;12220;50.194;18.948;2022-11-28T08:21:16;63;49;32
24012;PMS7003;12220;50.194;18.948;2022-11-28T08:23:33;68;50;32
24012;PMS7003;12220;50.194;18.948;2022-11-28T08:25:36;64;50;33
24012;PMS7003;12220;50.194;18.948;2022-11-28T08:27:39;72;54;37
24012;PMS7003;12220;50.194;18.948;2022-11-28T08:29:42;68;52;34
24012;PMS7003;12220;50.194;18.948;2022-11-28T08:31:48;75;59;36
24012;PMS7003;12220;50.194;18.948;2022-11-28T08:33:50;73;56;35
24012;PMS7003;12220;50.194;18.948;2022-11-28T08:35:53;63;52;33
24012;PMS7003;12220;50.194;18.948;2022-11-28T08:37:54;67;52;33
24012;PMS7003;12220;50.194;18.948;2022-11-28T08:40:04;61;48;31
24012;PMS7003;12220;50.194;18.948;2022-11-28T08:42:06;63;48;29
24012;PMS7003;12220;50.194;18.948;2022-11-28T08:44:07;59;48;30
24012;PMS7003;12220;50.194;18.948;2022-11-28T08:46:09;60;46;30
24012;PMS7003;12220;50.194;18.948;2022-11-28T08:48:19;61;44;28
24012;PMS7003;12220;50.194;18.948;2022-11-28T08:50:20;57;46;29
24012;PMS7003;12220;50.194;18.948;2022-11-28T08:52:21;69;53;32
24012;PMS7003;12220;50.194;18.948;2022-11-28T08:54:23;62;49;31
24012;PMS7003;12220;50.194;18.948;2022-11-28T08:56:34;55;45;28
24012;PMS7003;12220;50.194;18.948;2022-11-28T08:58:35;61;48;29
24012;PMS7003;12220;50.194;18.948;2022-11-28T09:00:37;57;45;27
24012;PMS7003;12220;50.194;18.948;2022-11-28T09:02:39;52;44;30
24012;PMS7003;12220;50.194;18.948;2022-11-28T09:04:49;59;47;28
24012;PMS7003;12220;50.194;18.948;2022-11-28T09:06:50;57;46;30
24012;PMS7003;12220;50.194;18.948;2022-11-28T09:08:54;59;48;31
24012;PMS7003;12220;50.194;18.948;2022-11-28T09:10:57;62;47;30
24012;PMS7003;12220;50.194;18.948;2022-11-28T09:13:04;55;43;26
24012;PMS7003;12220;50.194;18.948;2022-11-28T09:15:06;55;43;26
24012;PMS7003;12220;50.194;18.948;2022-11-28T09:17:08;65;47;30
24012;PMS7003;12220;50.194;18.948;2022-11-28T09:19:10;66;50;30
24012;PMS7003;12220;50.194;18.948;2022-11-28T09:21:19;60;45;29
24012;PMS7003;12220;50.194;18.948;2022-11-28T09:23:21;58;45;29
24012;PMS7003;12220;50.194;18.948;2022-11-28T09:25:22;54;42;26
24012;PMS7003;12220;50.194;18.948;2022-11-28T09:27:23;53;45;27
24012;PMS7003;12220;50.194;18.948;2022-11-28T09:29:34;53;42;27
24012;PMS7003;12220;50.194;18.948;2022-11-28T09:31:36;56;45;28
24012;PMS7003;12220;50.194;18.948;2022-11-28T09:33:37;58;43;27
24012;PMS7003;12220;50.194;18.948;2022-11-28T09:35:39;53;42;27
24012;PMS7003;12220;50.194;18.948;2022-11-28T09:37:50;52;40;24
24012;PMS7003;12220;50.194;18.948;2022-11-28T09:39:51;53;44;27
24012;PMS7003;12220;50.194;18.948;2022-11-28T09:41:57;56;44;26
24012;PMS7003;12220;50.194;18.948;2022-11-28T09:46:19;46;36;23
24012;PMS7003;12220;50.194;18.948;2022-11-28T09:48:37;43;35;22
24012;PMS7003;12220;50.194;18.948;2022-11-28T09:50:48;55;43;27
24012;PMS7003;12220;50.194;18.948;2022-11-28T09:52:55;50;39;26
24012;PMS7003;12220;50.194;18.948;2022-11-28T09:57:25;43;36;24
24012;PMS7003;12220;50.194;18.948;2022-11-28T09:59:33;44;35;22
24012;PMS7003;12220;50.194;18.948;2022-11-28T10:03:55;57;44;26
24012;PMS7003;12220;50.194;18.948;2022-11-28T10:06:09;55;40;24
24012;PMS7003;12220;50.194;18.948;2022-11-28T10:10:36;56;43;30
24012;PMS7003;12220;50.194;18.948;2022-11-28T10:12:57;60;43;27
24012;PMS7003;12220;50.194;18.948;2022-11-28T10:19:32;37;33;17
24012;PMS7003;12220;50.194;18.948;2022-11-28T10:21:51;49;39;24
24012;PMS7003;12220;50.194;18.948;2022-11-28T10:23:59;51;40;27
24012;PMS7003;12220;50.194;18.948;2022-11-28T10:26:08;49;40;27
24012;PMS7003;12220;50.194;18.948;2022-11-28T10:30:32;50;41;26
24012;PMS7003;12220;50.194;18.948;2022-11-28T10:32:42;55;42;29
24012;PMS7003;12220;50.194;18.948;2022-11-28T10:37:18;59;45;28
24012;PMS7003;12220;50.194;18.948;2022-11-28T10:39:25;53;43;28
24012;PMS7003;12220;50.194;18.948;2022-11-28T10:41:33;55;43;27
24012;PMS7003;12220;50.194;18.948;2022-11-28T10:44:27;56;41;27
24012;PMS7003;12220;50.194;18.948;2022-11-28T10:50:20;52;41;27
24012;PMS7003;12220;50.194;18.948;2022-11-28T10:55:04;54;41;28
24012;PMS7003;12220;50.194;18.948;2022-11-28T10:59:32;48;38;24
24012;PMS7003;12220;50.194;18.948;2022-11-28T11:01:42;38;34;24
24012;PMS7003;12220;50.194;18.948;2022-11-28T11:03:43;49;39;24
24012;PMS7003;12220;50.194;18.948;2022-11-28T11:05:47;51;39;26
24012;PMS7003;12220;50.194;18.948;2022-11-28T11:07:49;38;33;21
24012;PMS7003;12220;50.194;18.948;2022-11-28T11:09:54;42;32;18
24012;PMS7003;12220;50.194;18.948;2022-11-28T11:11:57;54;39;23
24012;PMS7003;12220;50.194;18.948;2022-11-28T11:14:03;43;35;24
24012;PMS7003;12220;50.194;18.948;2022-11-28T11:16:06;50;41;26
24012;PMS7003;12220;50.194;18.948;2022-11-28T11:22:35;53;42;26
24012;PMS7003;12220;50.194;18.948;2022-11-28T11:24:38;52;38;23
24012;PMS7003;12220;50.194;18.948;2022-11-28T11:26:41;52;40;27
24012;PMS7003;12220;50.194;18.948;2022-11-28T11:28:47;47;37;26
24012;PMS7003;12220;50.194;18.948;2022-11-28T11:33:02;45;35;26
24012;PMS7003;12220;50.194;18.948;2022-11-28T11:37:37;52;41;26
24012;PMS7003;12220;50.194;18.948;2022-11-28T11:39:45;52;39;25
24012;PMS7003;12220;50.194;18.948;2022-11-28T11:42:35;56;44;28
24012;PMS7003;12220;50.194;18.948;2022-11-28T11:46:16;66;52;32
24012;PMS7003;12220;50.194;18.948;2022-11-28T11:48:17;74;56;34
24012;PMS7003;12220;50.194;18.948;2022-11-28T11:50:37;68;52;32
24012;PMS7003;12220;50.194;18.948;2022-11-28T11:52:40;60;48;30
24012;PMS7003;12220;50.194;18.948;2022-11-28T11:54:51;64;50;31
24012;PMS7003;12220;50.194;18.948;2022-11-28T11:56:56;52;42;29
24012;PMS7003;12220;50.194;18.948;2022-11-28T11:58:59;59;44;27
24012;PMS7003;12220;50.194;18.948;2022-11-28T12:01:14;45;36;24
24012;PMS7003;12220;50.194;18.948;2022-11-28T12:07:47;47;39;25
24012;PMS7003;12220;50.194;18.948;2022-11-28T12:09:58;51;43;27
24012;PMS7003;12220;50.194;18.948;2022-11-28T12:12:06;54;43;26
24012;PMS7003;12220;50.194;18.948;2022-11-28T12:14:23;52;42;26
24012;PMS7003;12220;50.194;18.948;2022-11-28T12:16:34;50;39;25
24012;PMS7003;12220;50.194;18.948;2022-11-28T12:18:47;44;36;22
24012;PMS7003;12220;50.194;18.948;2022-11-28T12:21:00;43;31;20
24012;PMS7003;12220;50.194;18.948;2022-11-28T12:25:30;31;29;17
24012;PMS7003;12220;50.194;18.948;2022-11-28T12:34:39;34;31;19
24012;PMS7003;12220;50.194;18.948;2022-11-28T12:36:59;41;31;19
24012;PMS7003;12220;50.194;18.948;2022-11-28T12:51:11;40;32;20
24012;PMS7003;12220;50.194;18.948;2022-11-28T12:53:30;42;33;20
24012;PMS7003;12220;50.194;18.948;2022-11-28T12:58:14;34;29;20
24012;PMS7003;12220;50.194;18.948;2022-11-28T13:00:30;35;28;20
24012;PMS7003;12220;50.194;18.948;2022-11-28T13:07:07;37;32;19
24012;PMS7003;12220;50.194;18.948;2022-11-28T13:11:39;27;26;18
24012;PMS7003;12220;50.194;18.948;2022-11-28T13:13:43;40;32;20
24012;PMS7003;12220;50.194;18.948;2022-11-28T13:20:42;46;36;23
24012;PMS7003;12220;50.194;18.948;2022-11-28T13:22:55;42;33;22
24012;PMS7003;12220;50.194;18.948;2022-11-28T13:27:25;40;33;21
24012;PMS7003;12220;50.194;18.948;2022-11-28T13:29:37;52;40;23
24012;PMS7003;12220;50.194;18.948;2022-11-28T13:31:50;45;36;23
24012;PMS7003;12220;50.194;18.948;2022-11-28T13:33:58;29;29;18
24012;PMS7003;12220;50.194;18.948;2022-11-28T13:36:00;38;30;21
24012;PMS7003;12220;50.194;18.948;2022-11-28T13:38:10;32;27;19
24012;PMS7003;12220;50.194;18.948;2022-11-28T13:49:19;30;23;19
24012;PMS7003;12220;50.194;18.948;2022-11-28T13:51:25;29;29;19
24012;PMS7003;12220;50.194;18.948;2022-11-28T13:53:29;29;24;17
24012;PMS7003;12220;50.194;18.948;2022-11-28T13:55:49;26;24;17
24012;PMS7003;12220;50.194;18.948;2022-11-28T13:57:48;25;24;17
24012;PMS7003;12220;50.194;18.948;2022-11-28T14:00:38;25;24;17
24012;PMS7003;12220;50.194;18.948;2022-11-28T14:02:22;30;28;18
24012;PMS7003;12220;50.194;18.948;2022-11-28T14:04:40;41;31;18
24012;PMS7003;12220;50.194;18.948;2022-11-28T14:06:45;21;18;13
24012;PMS7003;12220;50.194;18.948;2022-11-28T14:09:03;24;23;14
24012;PMS7003;12220;50.194;18.948;2022-11-28T14:20:13;29;23;13
24012;PMS7003;12220;50.194;18.948;2022-11-28T14:25:10;22;18;14
24012;PMS7003;12220;50.194;18.948;2022-11-28T14:27:14;15;12;9
24012;PMS7003;12220;50.194;18.948;2022-11-28T14:29:27;18;18;11
24012;PMS7003;12220;50.194;18.948;2022-11-28T14:31:36;14;14;8
24012;PMS7003;12220;50.194;18.948;2022-11-28T14:33:39;18;17;11
24012;PMS7003;12220;50.194;18.948;2022-11-28T14:38:11;13;13;8
24012;PMS7003;12220;50.194;18.948;2022-11-28T14:42:45;24;20;13
24012;PMS7003;12220;50.194;18.948;2022-11-28T14:47:04;17;15;11
24012;PMS7003;12220;50.194;18.948;2022-11-28T14:49:15;18;14;11
24012;PMS7003;12220;50.194;18.948;2022-11-28T14:51:18;22;18;13
24012;PMS7003;12220;50.194;18.948;2022-11-28T14:55:46;17;16;10
24012;PMS7003;12220;50.194;18.948;2022-11-28T14:57:54;20;18;11
24012;PMS7003;12220;50.194;18.948;2022-11-28T14:59:58;18;16;13
24012;PMS7003;12220;50.194;18.948;2022-11-28T15:06:36;17;17;13
24012;PMS7003;12220;50.194;18.948;2022-11-28T15:15:50;14;14;10
24012;PMS7003;12220;50.194;18.948;2022-11-28T15:17:53;22;17;12
24012;PMS7003;12220;50.194;18.948;2022-11-28T15:19:55;24;21;15
24012;PMS7003;12220;50.194;18.948;2022-11-28T15:21:59;20;18;10
24012;PMS7003;12220;50.194;18.948;2022-11-28T15:26:27;26;23;17
24012;PMS7003;12220;50.194;18.948;2022-11-28T15:28:30;24;22;15
24012;PMS7003;12220;50.194;18.948;2022-11-28T15:30:35;24;20;11
24012;PMS7003;12220;50.194;18.948;2022-11-28T15:32:49;29;22;16
24012;PMS7003;12220;50.194;18.948;2022-11-28T15:34:58;21;20;13
24012;PMS7003;12220;50.194;18.948;2022-11-28T15:37:05;13;12;7
24012;PMS7003;12220;50.194;18.948;2022-11-28T15:39:21;20;19;12
24012;PMS7003;12220;50.194;18.948;2022-11-28T15:41:26;26;20;14
24012;PMS7003;12220;50.194;18.948;2022-11-28T15:43:31;23;21;15
24012;PMS7003;12220;50.194;18.948;2022-11-28T15:45:33;23;20;15
24012;PMS7003;12220;50.194;18.948;2022-11-28T15:47:35;30;22;15
24012;PMS7003;12220;50.194;18.948;2022-11-28T15:49:38;32;25;16
24012;PMS7003;12220;50.194;18.948;2022-11-28T15:51:43;26;22;15
24012;PMS7003;12220;50.194;18.948;2022-11-28T15:53:52;31;29;18
24012;PMS7003;12220;50.194;18.948;2022-11-28T15:56:15;27;26;18
24012;PMS7003;12220;50.194;18.948;2022-11-28T15:58:10;32;27;16
24012;PMS7003;12220;50.194;18.948;2022-11-28T16:00:16;24;21;15
24012;PMS7003;12220;50.194;18.948;2022-11-28T16:04:33;33;29;19
24012;PMS7003;12220;50.194;18.948;2022-11-28T16:06:35;30;29;18
24012;PMS7003;12220;50.194;18.948;2022-11-28T16:10:53;42;33;20
24012;PMS7003;12220;50.194;18.948;2022-11-28T16:17:21;36;32;19
24012;PMS7003;12220;50.194;18.948;2022-11-28T16:19:29;31;27;17
24012;PMS7003;12220;50.194;18.948;2022-11-28T16:21:39;42;32;21
24012;PMS7003;12220;50.194;18.948;2022-11-28T16:23:48;46;35;22
24012;PMS7003;12220;50.194;18.948;2022-11-28T16:30:41;57;43;27
24012;PMS7003;12220;50.194;18.948;2022-11-28T16:32:56;56;41;26
24012;PMS7003;12220;50.194;18.948;2022-11-28T16:34:57;39;34;25
24012;PMS7003;12220;50.194;18.948;2022-11-28T16:37:08;46;37;23
24012;PMS7003;12220;50.194;18.948;2022-11-28T16:39:14;48;35;24
24012;PMS7003;12220;50.194;18.948;2022-11-28T16:41:20;35;33;22
24012;PMS7003;12220;50.194;18.948;2022-11-28T16:43:33;39;33;21
24012;PMS7003;12220;50.194;18.948;2022-11-28T16:45:38;36;32;20
24012;PMS7003;12220;50.194;18.948;2022-11-28T16:47:40;32;28;19